Time;durP1;ratioP1;P1;durP2;ratioP2;P2;SDS_P1;SDS_P2;PMS_P1;PMS_P2;Temp;Humidity;BMP_temperature;BMP_pressure;BME280_temperature;BME280_humidity;BME280_pressure;Samples;Min_cycle;Max_cycle;Signal;HPM_P1;HPM_P2
2021/01/06 00:13:52;;;;;;;15.13;11.20;;;;;;;18.50;38.71;100667.47;31255118;28;20315;-60
2021/01/06 00:28:53;;;;;;;15.10;11.77;;;;;;;18.39;38.88;100652.59;31245513;28;20287;-60
2021/01/06 00:43:55;;;;;;;14.93;11.47;;;;;;;18.29;39.07;100654.31;31206201;28;20056;-60
2021/01/06 00:58:55;;;;;;;14.88;11.75;;;;;;;18.20;39.23;100649.81;31250291;28;20350;-59
2021/01/06 01:13:56;;;;;;;14.63;11.32;;;;;;;18.10;39.33;100631.34;31247576;28;20041;-60
2021/01/06 01:28:57;;;;;;;13.82;11.02;;;;;;;18.06;39.39;100623.84;31245401;28;20040;-59
2021/01/06 01:43:58;;;;;;;14.25;10.88;;;;;;;17.95;39.74;100609.75;31246608;28;20501;-60
2021/01/06 01:58:59;;;;;;;12.02;9.80;;;;;;;17.88;39.62;100598.09;31244910;28;20052;-61
2021/01/06 02:14:18;;;;;;;12.50;9.93;;;;;;;17.82;39.96;100587.25;31225572;28;20060;-61
2021/01/06 02:29:21;;;;;;;10.38;8.35;;;;;;;17.74;40.17;100575.53;31239907;28;20296;-61
2021/01/06 02:44:22;;;;;;;10.63;8.40;;;;;;;17.66;40.25;100553.47;31221884;28;20395;-61
2021/01/06 02:59:24;;;;;;;11.63;8.47;;;;;;;17.58;40.40;100551.47;31236830;28;20499;-61
2021/01/06 03:14:26;;;;;;;9.15;7.63;;;;;;;17.52;40.52;100542.31;31219337;28;20292;-61
2021/01/06 03:29:28;;;;;;;9.55;7.25;;;;;;;17.43;40.47;100519.44;31216691;28;20087;-61
2021/01/06 03:44:29;;;;;;;9.27;7.38;;;;;;;17.37;40.94;100515.50;31161761;28;20042;-62
2021/01/06 03:59:31;;;;;;;9.80;6.97;;;;;;;17.33;40.72;100511.44;31119416;28;20372;-60
2021/01/06 04:14:32;;;;;;;8.90;6.80;;;;;;;17.26;40.77;100491.91;31123054;28;20284;-62
2021/01/06 04:29:33;;;;;;;8.50;6.63;;;;;;;17.21;41.08;100488.81;31114953;28;20564;-62
2021/01/06 04:44:45;;;;;;;8.90;6.50;;;;;;;17.14;41.04;100474.53;31212039;28;20021;-62
2021/01/06 05:00:07;;;;;;;7.88;5.50;;;;;;;17.10;41.08;100478.34;31234572;28;20758;-62
2021/01/06 05:15:27;;;;;;;8.25;5.68;;;;;;;17.05;41.17;100476.09;31249003;28;20068;-62
2021/01/06 05:30:33;;;;;;;6.88;5.38;;;;;;;17.00;41.29;100475.66;31214473;28;20088;-62
2021/01/06 05:45:41;;;;;;;6.90;5.10;;;;;;;16.96;41.13;100477.66;31138652;28;20467;-62
2021/01/06 06:00:51;;;;;;;7.20;4.80;;;;;;;16.93;41.21;100466.59;31089625;28;20450;-62
2021/01/06 06:16:06;;;;;;;5.75;4.18;;;;;;;16.88;41.30;100447.75;31103904;28;20030;-62
2021/01/06 06:31:22;;;;;;;5.82;4.00;;;;;;;16.84;41.44;100455.03;31139073;28;20037;-62
2021/01/06 06:46:44;;;;;;;5.45;3.88;;;;;;;16.81;41.55;100446.56;31238568;28;20115;-62
2021/01/06 07:01:45;;;;;;;5.32;3.65;;;;;;;16.76;41.47;100444.28;31235318;28;20033;-62
2021/01/06 07:16:52;;;;;;;1.60;0.57;;;;;;;13.33;38.72;100448.31;31183956;28;20050;-63
2021/01/06 07:31:59;;;;;;;2.35;0.88;;;;;;;10.84;45.16;100452.88;31230241;28;20079;-62
2021/01/06 07:47:00;;;;;;;5.05;0.90;;;;;;;10.27;46.80;100458.50;31211043;28;20037;-64
2021/01/06 08:02:10;;;;;;;3.40;0.70;;;;;;;12.43;46.17;100449.66;31221270;28;20033;-64
2021/01/06 08:17:39;;;;;;;2.05;0.55;;;;;;;13.91;41.94;100450.56;31206124;28;20091;-63
2021/01/06 08:32:40;;;;;;;1.80;0.70;;;;;;;15.27;40.89;100463.59;31212711;28;20115;-65
2021/01/06 08:47:41;;;;;;;2.90;0.60;;;;;;;14.28;42.73;100458.47;31244390;28;20041;-65
2021/01/06 09:02:50;;;;;;;3.78;1.90;;;;;;;15.79;41.19;100472.81;31254780;28;20036;-64
2021/01/06 09:17:55;;;;;;;4.53;1.77;;;;;;;16.89;39.96;100479.13;31218180;28;20164;-65
2021/01/06 09:32:56;;;;;;;3.85;1.65;;;;;;;17.62;38.91;100462.72;31197726;28;20045;-65
2021/01/06 09:47:58;;;;;;;2.77;1.40;;;;;;;18.10;38.67;100460.38;31226624;28;20503;-65
2021/01/06 10:02:59;;;;;;;3.13;1.73;;;;;;;18.28;35.68;100454.47;31224313;28;20704;-64
2021/01/06 10:18:11;;;;;;;2.57;1.47;;;;;;;18.52;37.92;100427.84;31227299;28;20488;-65
2021/01/06 10:33:20;;;;;;;3.10;1.42;;;;;;;18.72;38.31;100407.66;31220941;28;20292;-65
2021/01/06 10:48:44;;;;;;;3.95;1.60;;;;;;;18.84;38.34;100404.75;31196160;28;20458;-65
2021/01/06 11:04:05;;;;;;;2.83;1.55;;;;;;;18.98;38.32;100385.06;31200117;28;20029;-62
2021/01/06 11:19:42;;;;;;;3.63;1.60;;;;;;;19.05;38.03;100378.28;31205503;28;20049;-65
2021/01/06 11:34:45;;;;;;;5.22;2.42;;;;;;;19.02;33.41;100369.84;31216100;28;20065;-64
2021/01/06 11:49:52;;;;;;;5.13;2.20;;;;;;;18.84;37.18;100356.53;31226076;28;20099;-63
2021/01/06 12:05:12;;;;;;;3.80;2.30;;;;;;;19.06;36.89;100334.34;31245596;28;20037;-63
2021/01/06 12:20:27;;;;;;;4.72;2.33;;;;;;;19.21;36.61;100325.00;31225166;28;20553;-61
2021/01/06 12:35:34;;;;;;;7.22;4.35;;;;;;;19.22;36.91;100318.78;31223374;28;20341;-66
2021/01/06 12:50:55;;;;;;;;;;;;;;;17.64;37.38;100316.22;31234960;28;20038;-65
2021/01/06 13:06:10;;;;;;;5.18;2.70;;;;;;;18.63;36.92;100322.44;31226843;28;19917;-63
2021/01/06 13:21:24;;;;;;;3.88;2.38;;;;;;;19.13;36.78;100326.72;31241906;28;20088;-63
2021/01/06 13:36:26;;;;;;;3.95;2.45;;;;;;;19.34;36.80;100318.63;31222223;28;20044;-64
2021/01/06 13:51:53;;;;;;;4.40;2.45;;;;;;;19.42;36.93;100326.63;31219046;28;20064;-64
2021/01/06 14:07:08;;;;;;;3.37;2.43;;;;;;;19.45;37.23;100326.34;31224747;28;20111;-65
2021/01/06 14:22:40;;;;;;;3.78;2.40;;;;;;;19.51;37.69;100319.66;31219538;28;20540;-64
2021/01/06 14:38:11;;;;;;;8.05;5.95;;;;;;;19.08;37.73;100327.16;31170286;28;20050;-64
2021/01/06 14:53:12;;;;;;;6.65;5.20;;;;;;;19.10;37.47;100322.53;31231242;28;20087;-64
2021/01/06 15:08:26;;;;;;;6.15;4.43;;;;;;;19.24;37.15;100319.47;31230194;28;20045;-63
2021/01/06 15:23:43;;;;;;;5.47;4.15;;;;;;;19.35;37.89;100325.53;31242376;28;20047;-65
2021/01/06 15:38:48;;;;;;;6.80;4.30;;;;;;;19.36;38.56;100328.03;31236371;28;20038;-66
2021/01/06 15:53:49;;;;;;;5.88;4.40;;;;;;;19.38;38.23;100322.63;31254805;28;20033;-66
2021/01/06 16:08:50;;;;;;;7.45;4.60;;;;;;;19.54;37.83;100319.38;31252756;28;20037;-65
2021/01/06 16:23:59;;;;;;;5.75;4.53;;;;;;;19.63;37.78;100321.13;31242984;28;20025;-65
2021/01/06 16:39:08;;;;;;;6.18;4.55;;;;;;;19.63;38.37;100321.97;31219055;28;20553;-64
2021/01/06 16:54:23;;;;;;;6.43;4.43;;;;;;;19.59;38.81;100322.41;31226392;28;20041;-63
2021/01/06 17:09:26;;;;;;;5.88;4.40;;;;;;;19.58;39.00;100320.75;31244500;28;20041;-65
2021/01/06 17:24:35;;;;;;;4.15;2.80;;;;;;;18.75;29.23;100320.47;31227396;28;20033;-65
2021/01/06 17:39:40;;;;;;;2.42;1.35;;;;;;;11.28;42.04;100350.66;31242683;28;20125;-63
2021/01/06 17:54:41;;;;;;;4.65;2.60;;;;;;;13.30;45.82;100344.06;31234740;28;20053;-62
2021/01/06 18:09:51;;;;;;;7.90;3.33;;;;;;;15.94;40.54;100349.41;31241728;28;20059;-62
2021/01/06 18:24:52;;;;;;;6.47;4.30;;;;;;;17.23;38.52;100355.59;31171706;28;20029;-63
2021/01/06 18:40:20;;;;;;;6.97;5.17;;;;;;;17.90;37.44;100361.34;31247699;28;20040;-63
2021/01/06 18:55:24;;;;;;;;;;;;;;;18.42;37.38;100360.22;31199311;28;20288;-61
2021/01/06 19:10:33;;;;;;;12.77;7.63;;;;;;;18.62;36.82;100362.88;31201777;28;19921;-62
2021/01/06 19:25:39;;;;;;;11.88;9.05;;;;;;;18.74;36.41;100366.22;31218028;28;20119;-62
2021/01/06 19:40:40;;;;;;;11.15;8.07;;;;;;;18.88;36.68;100365.00;31204343;28;20492;-64
2021/01/06 19:55:42;;;;;;;13.65;9.85;;;;;;;19.01;36.45;100369.00;31212769;28;20405;-65
2021/01/06 20:10:43;;;;;;;14.25;11.18;;;;;;;19.18;36.41;100364.81;31231596;28;20088;-64
2021/01/06 20:25:45;;;;;;;18.10;12.57;;;;;;;19.25;36.84;100365.91;31236057;28;20037;-65
2021/01/06 20:40:47;;;;;;;15.63;12.10;;;;;;;19.30;36.88;100362.84;31213528;28;20398;-65
2021/01/06 20:55:48;;;;;;;16.83;12.75;;;;;;;19.32;36.56;100358.28;31197007;28;20072;-65
2021/01/06 21:10:49;;;;;;;19.47;10.80;;;;;;;19.22;34.40;100349.56;31207648;28;20017;-66
2021/01/06 21:25:50;;;;;;;21.70;16.13;;;;;;;19.20;35.98;100343.63;31208401;28;20695;-65
2021/01/06 21:40:52;;;;;;;19.03;15.87;;;;;;;19.35;36.29;100331.63;31209260;28;20282;-65
2021/01/06 21:55:53;;;;;;;18.95;15.02;;;;;;;19.42;36.50;100327.47;31206762;28;20296;-64
2021/01/06 22:10:54;;;;;;;18.87;14.87;;;;;;;19.45;37.83;100324.53;31204810;28;20044;-64
2021/01/06 22:25:55;;;;;;;20.83;15.70;;;;;;;19.48;37.55;100327.88;31198598;28;20654;-62
2021/01/06 22:40:57;;;;;;;19.67;14.48;;;;;;;19.35;35.01;100320.25;31192409;28;20904;-63
2021/01/06 22:55:58;;;;;;;18.27;12.80;;;;;;;19.11;35.56;100318.94;31194304;28;20049;-63
2021/01/06 23:10:59;;;;;;;18.80;13.17;;;;;;;18.88;35.84;100318.44;31196384;28;20631;-62
2021/01/06 23:26:00;;;;;;;15.50;12.17;;;;;;;18.67;36.10;100323.81;31208444;28;20314;-62
2021/01/06 23:41:01;;;;;;;18.53;12.03;;;;;;;18.50;37.21;100327.13;31230275;28;20290;-62
2021/01/06 23:56:02;;;;;;;14.82;10.93;;;;;;;18.36;37.92;100325.72;31248641;28;20296;-61
